sensor_id;sensor_type;location;lat;lon;timestamp;pressure;altitude;pressure_sealevel;temperature;humidity
50696;BME280;36665;51.786;21.594;2024-01-07T00:04:09;88407.92;;;-5.85;100.00
50696;BME280;36665;51.786;21.594;2024-01-07T00:12:35;88376.63;;;-5.93;100.00
50696;BME280;36665;51.786;21.594;2024-01-07T00:20:59;88356.70;;;-5.99;100.00
50696;BME280;36665;51.786;21.594;2024-01-07T00:29:24;88345.38;;;-6.02;100.00
50696;BME280;36665;51.786;21.594;2024-01-07T00:37:47;88330.49;;;-6.07;100.00
50696;BME280;36665;51.786;21.594;2024-01-07T00:46:13;88314.52;;;-6.11;100.00
50696;BME280;36665;51.786;21.594;2024-01-07T00:54:37;88293.35;;;-6.17;100.00
50696;BME280;36665;51.786;21.594;2024-01-07T01:03:01;88281.20;;;-6.20;100.00
50696;BME280;36665;51.786;21.594;2024-01-07T01:11:28;88260.58;;;-6.26;100.00
50696;BME280;36665;51.786;21.594;2024-01-07T01:19:54;88258.58;;;-6.27;100.00
50696;BME280;36665;51.786;21.594;2024-01-07T01:28:19;88243.95;;;-6.31;100.00
50696;BME280;36665;51.786;21.594;2024-01-07T01:36:44;88226.83;;;-6.37;100.00
50696;BME280;36665;51.786;21.594;2024-01-07T01:45:09;88204.00;;;-6.42;100.00
50696;BME280;36665;51.786;21.594;2024-01-07T01:53:37;88178.23;;;-6.48;100.00
50696;BME280;36665;51.786;21.594;2024-01-07T02:02:03;88173.37;;;-6.51;100.00
50696;BME280;36665;51.786;21.594;2024-01-07T02:10:27;88168.29;;;-6.53;100.00
50696;BME280;36665;51.786;21.594;2024-01-07T02:18:59;88141.70;;;-6.59;100.00
50696;BME280;36665;51.786;21.594;2024-01-07T02:27:23;88127.23;;;-6.64;100.00
50696;BME280;36665;51.786;21.594;2024-01-07T02:35:48;88113.02;;;-6.67;100.00
50696;BME280;36665;51.786;21.594;2024-01-07T02:44:12;88104.24;;;-6.71;100.00
50696;BME280;36665;51.786;21.594;2024-01-07T02:52:37;88090.56;;;-6.73;100.00
50696;BME280;36665;51.786;21.594;2024-01-07T03:01:02;88068.54;;;-6.80;100.00
50696;BME280;36665;51.786;21.594;2024-01-07T03:09:27;88065.33;;;-6.81;100.00
50696;BME280;36665;51.786;21.594;2024-01-07T03:17:51;88046.71;;;-6.86;100.00
50696;BME280;36665;51.786;21.594;2024-01-07T03:26:18;88034.31;;;-6.89;100.00
50696;BME280;36665;51.786;21.594;2024-01-07T03:34:47;88026.58;;;-6.93;100.00
50696;BME280;36665;51.786;21.594;2024-01-07T03:43:12;88028.59;;;-6.91;100.00
50696;BME280;36665;51.786;21.594;2024-01-07T03:51:36;88018.95;;;-6.94;100.00
50696;BME280;36665;51.786;21.594;2024-01-07T04:00:01;88003.71;;;-6.98;100.00
50696;BME280;36665;51.786;21.594;2024-01-07T04:08:28;87987.23;;;-7.03;100.00
50696;BME280;36665;51.786;21.594;2024-01-07T04:16:52;87976.92;;;-7.05;100.00
50696;BME280;36665;51.786;21.594;2024-01-07T04:25:16;87950.69;;;-7.13;100.00
50696;BME280;36665;51.786;21.594;2024-01-07T04:33:40;87920.63;;;-7.22;100.00
50696;BME280;36665;51.786;21.594;2024-01-07T04:42:07;87907.66;;;-7.26;100.00
50696;BME280;36665;51.786;21.594;2024-01-07T04:50:36;87897.45;;;-7.29;100.00
50696;BME280;36665;51.786;21.594;2024-01-07T04:59:00;87874.84;;;-7.36;100.00
50696;BME280;36665;51.786;21.594;2024-01-07T05:07:25;87873.46;;;-7.35;100.00
50696;BME280;36665;51.786;21.594;2024-01-07T05:15:50;87868.05;;;-7.37;100.00
50696;BME280;36665;51.786;21.594;2024-01-07T05:24:18;87867.39;;;-7.38;100.00
50696;BME280;36665;51.786;21.594;2024-01-07T05:32:45;87868.96;;;-7.37;100.00
50696;BME280;36665;51.786;21.594;2024-01-07T05:41:09;87860.52;;;-7.40;100.00
50696;BME280;36665;51.786;21.594;2024-01-07T05:49:33;87865.50;;;-7.38;100.00
50696;BME280;36665;51.786;21.594;2024-01-07T05:57:57;87877.37;;;-7.34;100.00
50696;BME280;36665;51.786;21.594;2024-01-07T06:06:24;87871.06;;;-7.35;100.00
50696;BME280;36665;51.786;21.594;2024-01-07T06:14:49;87862.70;;;-7.38;100.00
50696;BME280;36665;51.786;21.594;2024-01-07T06:23:13;87847.25;;;-7.43;100.00
50696;BME280;36665;51.786;21.594;2024-01-07T06:31:44;87828.08;;;-7.47;100.00
50696;BME280;36665;51.786;21.594;2024-01-07T06:40:14;87807.56;;;-7.53;100.00
50696;BME280;36665;51.786;21.594;2024-01-07T06:48:41;87805.23;;;-7.54;100.00
50696;BME280;36665;51.786;21.594;2024-01-07T06:57:11;87805.13;;;-7.54;100.00
50696;BME280;36665;51.786;21.594;2024-01-07T07:05:36;87797.79;;;-7.56;100.00
50696;BME280;36665;51.786;21.594;2024-01-07T07:14:00;87758.80;;;-7.67;100.00
50696;BME280;36665;51.786;21.594;2024-01-07T07:22:25;87735.42;;;-7.75;100.00
50696;BME280;36665;51.786;21.594;2024-01-07T07:30:49;87727.11;;;-7.76;100.00
50696;BME280;36665;51.786;21.594;2024-01-07T07:39:17;87701.46;;;-7.83;100.00
50696;BME280;36665;51.786;21.594;2024-01-07T07:47:44;87705.42;;;-7.82;100.00
50696;BME280;36665;51.786;21.594;2024-01-07T07:56:08;87699.45;;;-7.84;100.00
50696;BME280;36665;51.786;21.594;2024-01-07T08:04:35;87685.73;;;-7.89;100.00
50696;BME280;36665;51.786;21.594;2024-01-07T08:13:00;87669.80;;;-7.93;100.00
50696;BME280;36665;51.786;21.594;2024-01-07T08:21:26;87678.34;;;-7.91;100.00
50696;BME280;36665;51.786;21.594;2024-01-07T08:29:54;87676.05;;;-7.90;100.00
50696;BME280;36665;51.786;21.594;2024-01-07T08:38:18;87631.08;;;-8.02;100.00
50696;BME280;36665;51.786;21.594;2024-01-07T08:46:42;87628.20;;;-8.04;100.00
50696;BME280;36665;51.786;21.594;2024-01-07T08:55:07;87678.52;;;-7.89;100.00
50696;BME280;36665;51.786;21.594;2024-01-07T09:03:33;87683.44;;;-7.88;100.00
50696;BME280;36665;51.786;21.594;2024-01-07T09:12:00;87686.44;;;-7.88;100.00
50696;BME280;36665;51.786;21.594;2024-01-07T09:20:25;87729.81;;;-7.75;100.00
50696;BME280;36665;51.786;21.594;2024-01-07T09:28:49;87747.30;;;-7.70;100.00
50696;BME280;36665;51.786;21.594;2024-01-07T09:37:13;87767.05;;;-7.64;100.00
50696;BME280;36665;51.786;21.594;2024-01-07T09:45:45;87772.91;;;-7.61;100.00
50696;BME280;36665;51.786;21.594;2024-01-07T09:54:09;87841.23;;;-7.42;100.00
50696;BME280;36665;51.786;21.594;2024-01-07T10:02:42;87882.89;;;-7.29;100.00
50696;BME280;36665;51.786;21.594;2024-01-07T10:11:05;87870.73;;;-7.33;100.00
50696;BME280;36665;51.786;21.594;2024-01-07T10:19:29;87854.66;;;-7.38;100.00
50696;BME280;36665;51.786;21.594;2024-01-07T10:27:54;87822.02;;;-7.48;100.00
50696;BME280;36665;51.786;21.594;2024-01-07T10:36:24;87849.29;;;-7.40;100.00
50696;BME280;36665;51.786;21.594;2024-01-07T10:44:49;87862.77;;;-7.35;100.00
50696;BME280;36665;51.786;21.594;2024-01-07T10:53:20;87860.42;;;-7.36;100.00
50696;BME280;36665;51.786;21.594;2024-01-07T11:01:48;87845.88;;;-7.40;100.00
50696;BME280;36665;51.786;21.594;2024-01-07T11:10:16;87853.79;;;-7.37;100.00
50696;BME280;36665;51.786;21.594;2024-01-07T11:18:46;87853.48;;;-7.38;100.00
50696;BME280;36665;51.786;21.594;2024-01-07T11:27:16;87851.15;;;-7.39;100.00
50696;BME280;36665;51.786;21.594;2024-01-07T11:36:06;87833.61;;;-7.43;100.00
50696;BME280;36665;51.786;21.594;2024-01-07T11:44:47;87839.44;;;-7.42;100.00
50696;BME280;36665;51.786;21.594;2024-01-07T11:53:13;87850.09;;;-7.39;100.00
50696;BME280;36665;51.786;21.594;2024-01-07T12:01:37;87861.51;;;-7.36;100.00
50696;BME280;36665;51.786;21.594;2024-01-07T12:10:03;87934.76;;;-7.14;100.00
50696;BME280;36665;51.786;21.594;2024-01-07T12:18:32;87948.71;;;-7.10;100.00
50696;BME280;36665;51.786;21.594;2024-01-07T12:27:07;87936.98;;;-7.13;100.00
50696;BME280;36665;51.786;21.594;2024-01-07T12:35:32;87934.75;;;-7.14;100.00
50696;BME280;36665;51.786;21.594;2024-01-07T12:44:15;87940.44;;;-7.12;100.00
50696;BME280;36665;51.786;21.594;2024-01-07T12:52:40;87939.06;;;-7.12;100.00
50696;BME280;36665;51.786;21.594;2024-01-07T13:01:07;87968.73;;;-7.03;100.00
50696;BME280;36665;51.786;21.594;2024-01-07T13:09:51;87981.65;;;-6.99;100.00
50696;BME280;36665;51.786;21.594;2024-01-07T13:18:16;87993.23;;;-6.96;100.00
50696;BME280;36665;51.786;21.594;2024-01-07T13:26:47;87970.98;;;-7.03;100.00
50696;BME280;36665;51.786;21.594;2024-01-07T13:35:13;87932.41;;;-7.14;100.00
50696;BME280;36665;51.786;21.594;2024-01-07T13:43:42;87905.48;;;-7.22;100.00
50696;BME280;36665;51.786;21.594;2024-01-07T13:52:09;87880.39;;;-7.29;100.00
50696;BME280;36665;51.786;21.594;2024-01-07T14:00:41;87869.45;;;-7.32;100.00
50696;BME280;36665;51.786;21.594;2024-01-07T14:09:06;87866.50;;;-7.32;100.00
50696;BME280;36665;51.786;21.594;2024-01-07T14:17:33;87861.06;;;-7.35;100.00
50696;BME280;36665;51.786;21.594;2024-01-07T14:25:59;87811.77;;;-7.49;100.00
50696;BME280;36665;51.786;21.594;2024-01-07T14:34:25;87766.77;;;-7.62;100.00
50696;BME280;36665;51.786;21.594;2024-01-07T14:42:48;87745.23;;;-7.69;100.00
50696;BME280;36665;51.786;21.594;2024-01-07T14:51:13;87684.63;;;-7.86;100.00
50696;BME280;36665;51.786;21.594;2024-01-07T14:59:37;87637.96;;;-7.99;100.00
50696;BME280;36665;51.786;21.594;2024-01-07T15:08:04;87612.64;;;-8.08;100.00
50696;BME280;36665;51.786;21.594;2024-01-07T15:16:31;87582.31;;;-8.15;100.00
50696;BME280;36665;51.786;21.594;2024-01-07T15:24:56;87577.01;;;-8.17;100.00
50696;BME280;36665;51.786;21.594;2024-01-07T15:33:21;87547.86;;;-8.25;100.00
50696;BME280;36665;51.786;21.594;2024-01-07T15:41:47;87460.40;;;-8.51;100.00
50696;BME280;36665;51.786;21.594;2024-01-07T15:50:13;87426.62;;;-8.60;100.00
50696;BME280;36665;51.786;21.594;2024-01-07T15:58:38;87426.56;;;-8.59;100.00
50696;BME280;36665;51.786;21.594;2024-01-07T16:07:03;87427.23;;;-8.59;100.00
50696;BME280;36665;51.786;21.594;2024-01-07T16:15:28;87414.52;;;-8.64;100.00
50696;BME280;36665;51.786;21.594;2024-01-07T16:23:53;87385.48;;;-8.72;100.00
50696;BME280;36665;51.786;21.594;2024-01-07T16:32:18;87373.36;;;-8.75;100.00
50696;BME280;36665;51.786;21.594;2024-01-07T16:40:42;87349.13;;;-8.83;100.00
50696;BME280;36665;51.786;21.594;2024-01-07T16:49:07;87340.92;;;-8.85;100.00
50696;BME280;36665;51.786;21.594;2024-01-07T16:57:36;87303.36;;;-8.96;100.00
50696;BME280;36665;51.786;21.594;2024-01-07T17:06:02;87275.70;;;-9.05;100.00
50696;BME280;36665;51.786;21.594;2024-01-07T17:14:30;87255.96;;;-9.09;100.00
50696;BME280;36665;51.786;21.594;2024-01-07T17:22:55;87221.08;;;-9.19;100.00
50696;BME280;36665;51.786;21.594;2024-01-07T17:31:20;87195.29;;;-9.26;100.00
50696;BME280;36665;51.786;21.594;2024-01-07T17:39:45;87198.37;;;-9.25;100.00
50696;BME280;36665;51.786;21.594;2024-01-07T17:48:12;87190.85;;;-9.27;100.00
50696;BME280;36665;51.786;21.594;2024-01-07T17:56:38;87118.17;;;-9.49;100.00
50696;BME280;36665;51.786;21.594;2024-01-07T18:05:03;87061.19;;;-9.64;100.00
50696;BME280;36665;51.786;21.594;2024-01-07T18:13:29;87034.54;;;-9.72;100.00
50696;BME280;36665;51.786;21.594;2024-01-07T18:21:54;86992.91;;;-9.85;100.00
50696;BME280;36665;51.786;21.594;2024-01-07T18:30:19;86941.38;;;-10.00;100.00
50696;BME280;36665;51.786;21.594;2024-01-07T18:38:45;86910.04;;;-10.09;100.00
50696;BME280;36665;51.786;21.594;2024-01-07T18:47:11;86900.83;;;-10.12;100.00
50696;BME280;36665;51.786;21.594;2024-01-07T18:55:40;86904.50;;;-10.11;100.00
50696;BME280;36665;51.786;21.594;2024-01-07T19:04:09;86857.86;;;-10.24;100.00
50696;BME280;36665;51.786;21.594;2024-01-07T19:12:34;86803.20;;;-10.40;100.00
50696;BME280;36665;51.786;21.594;2024-01-07T19:21:00;86760.04;;;-10.52;100.00
50696;BME280;36665;51.786;21.594;2024-01-07T19:29:26;86709.06;;;-10.67;100.00
50696;BME280;36665;51.786;21.594;2024-01-07T19:37:51;86658.33;;;-10.82;100.00
50696;BME280;36665;51.786;21.594;2024-01-07T19:46:26;86638.83;;;-10.87;100.00
50696;BME280;36665;51.786;21.594;2024-01-07T19:54:52;86622.70;;;-10.93;100.00
50696;BME280;36665;51.786;21.594;2024-01-07T20:03:21;86606.61;;;-10.98;100.00
50696;BME280;36665;51.786;21.594;2024-01-07T20:11:49;86617.41;;;-10.94;100.00
50696;BME280;36665;51.786;21.594;2024-01-07T20:20:13;86621.30;;;-10.93;100.00
50696;BME280;36665;51.786;21.594;2024-01-07T20:28:40;86607.80;;;-10.97;100.00
50696;BME280;36665;51.786;21.594;2024-01-07T20:37:05;86616.64;;;-10.94;100.00
50696;BME280;36665;51.786;21.594;2024-01-07T20:45:29;86626.81;;;-10.91;100.00
50696;BME280;36665;51.786;21.594;2024-01-07T20:53:56;86620.24;;;-10.92;100.00
50696;BME280;36665;51.786;21.594;2024-01-07T21:02:23;86618.17;;;-10.93;100.00
50696;BME280;36665;51.786;21.594;2024-01-07T21:10:49;86620.59;;;-10.92;100.00
50696;BME280;36665;51.786;21.594;2024-01-07T21:19:13;86625.49;;;-10.92;100.00
50696;BME280;36665;51.786;21.594;2024-01-07T21:27:40;86632.06;;;-10.88;100.00
50696;BME280;36665;51.786;21.594;2024-01-07T21:36:07;86644.94;;;-10.85;100.00
50696;BME280;36665;51.786;21.594;2024-01-07T21:44:34;86651.51;;;-10.83;100.00
50696;BME280;36665;51.786;21.594;2024-01-07T21:53:00;86661.08;;;-10.80;100.00
50696;BME280;36665;51.786;21.594;2024-01-07T22:01:25;86666.23;;;-10.78;100.00
50696;BME280;36665;51.786;21.594;2024-01-07T22:09:51;86663.55;;;-10.80;100.00
50696;BME280;36665;51.786;21.594;2024-01-07T22:18:15;86667.84;;;-10.78;100.00
50696;BME280;36665;51.786;21.594;2024-01-07T22:26:41;86679.05;;;-10.74;100.00
50696;BME280;36665;51.786;21.594;2024-01-07T22:35:09;86678.77;;;-10.75;100.00
50696;BME280;36665;51.786;21.594;2024-01-07T22:43:36;86674.56;;;-10.75;100.00
50696;BME280;36665;51.786;21.594;2024-01-07T22:52:05;86695.02;;;-10.69;100.00
50696;BME280;36665;51.786;21.594;2024-01-07T23:00:30;86716.09;;;-10.62;100.00
50696;BME280;36665;51.786;21.594;2024-01-07T23:08:55;86750.83;;;-10.53;100.00
50696;BME280;36665;51.786;21.594;2024-01-07T23:17:20;86763.16;;;-10.49;100.00
50696;BME280;36665;51.786;21.594;2024-01-07T23:25:45;86774.34;;;-10.45;100.00
50696;BME280;36665;51.786;21.594;2024-01-07T23:34:11;86822.20;;;-10.32;100.00
50696;BME280;36665;51.786;21.594;2024-01-07T23:42:40;86852.20;;;-10.22;100.00
50696;BME280;36665;51.786;21.594;2024-01-07T23:51:07;86839.20;;;-10.26;100.00
50696;BME280;36665;51.786;21.594;2024-01-07T23:59:31;86828.38;;;-10.30;100.00
